Página principal
METAR-TAF:

METAR-TAF

Aeroportos :

Yap, Micronésia

latitude: 09-29N, longitude: 138-05E, altura: 28 m

Observação actual do tempo

O boletim foi feito há 1 hora e 21 minutos, às 22:50 UTC
Vento calmo
Temperatura 25°C
Humidade 94%
Pressão 1012 hPa
Visibilidade: 16.1 km
Nuvens dispersasa uma altura de 1600 ft, Cumulonimbus.
Nuvens fragmentadasa uma altura de 4000 ft
Encobertoa uma altura de 13000 ft
aguaceiros fracos de chuva

METAR: PTYA 122250Z 00000KT 10SM -SHRA SCT016CB BKN040 OVC130 25/24 A2989 RMK CB ALQDS SLP122 T02490241

Hora: 10:11 (00:11 UTC)

Previsão

O boletim foi feito há 43 minutos, às 23:28 UTC
Previsão válida de 13 às 00 UTC a 13 às 24 UTC
Vento 7 kt de es-nordeste
Visibilidade: 10 km
Nuvens dispersasa uma altura de 1600 ft
Nuvens dispersasa uma altura de 4000 ft
Nuvens fragmentadasa uma altura de 13000 ft
aguaceiros nas vizinhanças

TAF: PTYA 122328Z 1300/1324 07007KT P6SM VCSH SCT016 SCT040 BKN130

Observações e previsões do tempo de mais de 4000 aeroportos (mensagens METAR e TAF).

As estações disponíveis são os pontos amarelos e vermelhos sobre o mapa.

Mova o rato sobre o mapa para ver o nome da estação.

Depois clique no ponto para visualizar as observações e previsões meteorológicas.

Para alterar o mapa : clique nos botões verdes com uma cruz preta para aumentar o zoom; no botão verde com uma pitada de zoom; ou nas setas verdes para mapas adjacentes.


METAR-TAF: